This is the latest recevied weather packets stored in our database for station/object N8AMF. If no packets are shown the sender has not sent any weather packets the latest 10 day(s).
| Time | Temp. | Humidity | Pressure | Rain* | Wind** | Luminosity | Snow |
|---|---|---|---|---|---|---|---|
| 1778027878 | 9.44° C | 98% | 1007.5 hPa | 2.29 mm | - | 0 W/m² | - |
| 1778027575 | 9.44° C | 98% | 1007.7 hPa | 2.29 mm | - | 0 W/m² | - |
| 1778027271 | 9.44° C | 98% | 1007.7 hPa | 1.27 mm | - | 0 W/m² | - |
| 1778026967 | 9.44° C | 98% | 1007.6 hPa | 1.78 mm | - | 1 W/m² | - |
| 1778026663 | 9.44° C | 98% | 1007.6 hPa | 1.78 mm | - | 1 W/m² | - |
| 1778026361 | 9.44° C | 98% | 1007.3 hPa | 1.78 mm | - | 1 W/m² | - |
| 1778026057 | 9.44° C | 98% | 1007.2 hPa | 2.29 mm | - | 3 W/m² | - |
| 1778025755 | 9.44° C | 98% | 1007.2 hPa | 3.05 mm | - | 2 W/m² | - |
| 1778025452 | 9.44° C | 98% | 1007.1 hPa | 3.56 mm | - | 3 W/m² | - |
| 1778025150 | 9.44° C | 98% | 1007 hPa | 3.05 mm | - | 3 W/m² | - |
| 1778024846 | 9.44° C | 98% | 1006.9 hPa | 2.29 mm | - | 8 W/m² | - |
| 1778024544 | 9.44° C | 98% | 1007 hPa | 1.78 mm | - | 14 W/m² | - |
| 1778024240 | 10° C | 98% | 1007 hPa | 0.51 mm | - | 9 W/m² | - |
| 1778023938 | 10° C | 98% | 1007 hPa | 0.51 mm | - | 5 W/m² | - |
| 1778023635 | 10° C | 98% | 1006.9 hPa | 0.51 mm | - | 8 W/m² | - |
| 1778023333 | 10° C | 98% | 1007.2 hPa | 0.51 mm | - | 8 W/m² | - |
| 1778023029 | 10° C | 98% | 1007.3 hPa | 0.51 mm | - | 22 W/m² | - |
| 1778022728 | 10° C | 98% | 1007.1 hPa | 0.51 mm | - | 20 W/m² | - |
| 1778022426 | 10° C | 97% | 1007 hPa | 1.27 mm | - | 29 W/m² | - |
| 1778022122 | 10° C | 97% | 1007.5 hPa | 5.33 mm | - | 38 W/m² | - |
| 1778021818 | 10° C | 97% | 1007.8 hPa | 7.87 mm | - | 20 W/m² | - |
| 1778021515 | 10° C | 97% | 1007.9 hPa | 7.11 mm | - | 11 W/m² | - |
| 1778021211 | 10° C | 97% | 1007.8 hPa | 7.11 mm | - | 10 W/m² | - |
| 1778020909 | 10° C | 97% | 1007.7 hPa | 3.56 mm | - | 12 W/m² | - |
| 1778020606 | 10° C | 97% | 1007.7 hPa | 2.29 mm | - | 12 W/m² | - |
* Rain latest hour (hover to see other rain measurements)
** Current wind speed in m/s (hover to see current wind gust speed)